createdAt,value
2018-04-15T00:00:56.085Z,99.99
2018-04-15T00:01:56.331Z,99.99
2018-04-15T00:02:56.317Z,99.99
2018-04-15T00:03:56.038Z,99.99
2018-04-15T00:04:56.022Z,99.99
2018-04-15T00:05:56.007Z,99.99
2018-04-15T00:06:56.257Z,99.99
2018-04-15T00:07:55.976Z,99.99
2018-04-15T00:08:56.225Z,99.99
2018-04-15T00:09:56.221Z,99.99
2018-04-15T00:10:56.198Z,99.99
2018-04-15T00:11:56.182Z,99.99
2018-04-15T00:12:55.910Z,99.99
2018-04-15T00:13:56.162Z,98.37
2018-04-15T00:14:55.870Z,99.8
2018-04-15T00:15:56.126Z,99.13
2018-04-15T00:16:56.112Z,99.99
2018-04-15T00:17:55.826Z,99.8
2018-04-15T00:18:55.812Z,99.23
2018-04-15T00:19:56.061Z,97.89
2018-04-15T00:20:56.048Z,99.23
2018-04-15T00:21:56.232Z,98.75
2018-04-15T00:22:56.019Z,99.23
2018-04-15T00:23:55.735Z,99.52
2018-04-15T00:24:55.989Z,98.75
2018-04-15T00:25:55.972Z,98.85
2018-04-15T00:26:55.956Z,98.66
2018-04-15T00:27:55.940Z,99.13
2018-04-15T00:28:55.935Z,98.75
2018-04-15T00:29:55.848Z,99.52
2018-04-15T00:30:55.907Z,99.32
2018-04-15T00:31:55.623Z,99.04
2018-04-15T00:32:55.874Z,99.23
2018-04-15T00:33:55.858Z,99.04
2018-04-15T00:34:55.836Z,99.52
2018-04-15T00:35:55.825Z,99.23
2018-04-15T00:36:55.545Z,99.04
2018-04-15T00:37:55.788Z,99.61
2018-04-15T00:38:55.509Z,98.37
2018-04-15T00:39:55.759Z,98.56
2018-04-15T00:40:55.482Z,99.23
2018-04-15T00:41:55.734Z,98.47
2018-04-15T00:42:55.454Z,98.66
2018-04-15T00:43:55.712Z,98.75
2018-04-15T00:44:55.420Z,99.04
2018-04-15T00:45:55.665Z,98.56
2018-04-15T00:46:55.651Z,98.18
2018-04-15T00:47:55.377Z,97.8
2018-04-15T00:48:55.359Z,98.47
2018-04-15T00:49:55.343Z,98.56
2018-04-15T00:50:55.329Z,98.37
2018-04-15T00:51:55.312Z,98.66
2018-04-15T00:52:55.305Z,98.56
2018-04-15T00:53:55.549Z,98.94
2018-04-15T00:54:55.267Z,97.8
2018-04-15T00:55:55.517Z,96.94
2018-04-15T00:56:55.502Z,97.61
2018-04-15T00:57:55.240Z,96.56
2018-04-15T00:58:55.207Z,96.84
2018-04-15T00:59:55.456Z,96.84
2018-04-15T01:00:55.179Z,97.22
2018-04-15T01:01:55.167Z,95.03
2018-04-15T01:02:55.414Z,95.7
2018-04-15T01:03:55.396Z,95.12
2018-04-15T01:04:55.397Z,95.32
2018-04-15T01:05:55.367Z,95.7
2018-04-15T01:06:55.352Z,95.41
2018-04-15T01:07:55.333Z,95.41
2018-04-15T01:08:55.325Z,95.7
2018-04-15T01:09:55.308Z,95.89
2018-04-15T01:10:55.028Z,95.89
2018-04-15T01:11:55.017Z,95.51
2018-04-15T01:12:54.998Z,95.22
2018-04-15T01:13:54.983Z,94.93
2018-04-15T01:14:55.228Z,94.56
2018-04-15T01:15:55.224Z,95.22
2018-04-15T01:16:54.944Z,94.46
2018-04-15T01:17:55.187Z,95.22
2018-04-15T01:18:55.176Z,94.36
2018-04-15T01:19:54.890Z,93.7
2018-04-15T01:20:54.880Z,93.88
2018-04-15T01:21:54.860Z,93.7
2018-04-15T01:22:54.858Z,94.36
2018-04-15T01:23:55.093Z,93.02
2018-04-15T01:24:54.815Z,93.51
2018-04-15T01:25:54.803Z,93.6
2018-04-15T01:26:54.787Z,93.6
2018-04-15T01:27:55.037Z,93.41
2018-04-15T01:28:54.759Z,92.65
2018-04-15T01:29:55.015Z,92.36
2018-04-15T01:30:55.007Z,91.88
2018-04-15T01:31:54.975Z,91.02
2018-04-15T01:32:54.707Z,90.17
2018-04-15T01:33:54.685Z,89.02
2018-04-15T01:34:54.674Z,87.11
2018-04-15T01:35:54.655Z,87.68
2018-04-15T01:36:54.905Z,87.11
2018-04-15T01:37:54.629Z,87.59
2018-04-15T01:38:54.873Z,86.73
2018-04-15T01:39:54.599Z,86.63
2018-04-15T01:40:54.842Z,86.35
2018-04-15T01:41:54.567Z,85.77
2018-04-15T01:42:54.549Z,85.21
2018-04-15T01:43:54.534Z,84.72
2018-04-15T01:44:54.782Z,83.48
2018-04-15T01:45:54.770Z,83.87
2018-04-15T01:46:54.505Z,83.58
2018-04-15T01:47:54.477Z,83.29
2018-04-15T01:48:54.723Z,83.77
2018-04-15T01:49:54.451Z,82.53
2018-04-15T01:50:54.703Z,81.96
2018-04-15T01:51:54.419Z,81.67
2018-04-15T01:52:54.401Z,81.48
2018-04-15T01:53:54.650Z,81.29
2018-04-15T01:54:54.642Z,79.48
2018-04-15T01:55:54.622Z,79.96
2018-04-15T01:56:54.340Z,79.77
2018-04-15T01:57:54.330Z,79
2018-04-15T01:58:54.323Z,78.62
2018-04-15T01:59:54.300Z,79.1
2018-04-15T02:00:54.552Z,78.91
2018-04-15T02:01:54.546Z,77.86
2018-04-15T02:02:54.524Z,77.95
2018-04-15T02:03:54.243Z,78.33
2018-04-15T02:04:54.494Z,74.71
2018-04-15T02:05:54.211Z,74.32
2018-04-15T02:06:54.469Z,74.13
2018-04-15T02:07:54.445Z,74.52
2018-04-15T02:08:54.161Z,74.13
2018-04-15T02:09:54.151Z,74.71
2018-04-15T02:10:54.134Z,74.23
2018-04-15T02:11:54.390Z,73.75
2018-04-15T02:12:54.104Z,73.85
2018-04-15T02:13:54.354Z,72.89
2018-04-15T02:14:54.344Z,73.47
2018-04-15T02:15:54.331Z,72.99
2018-04-15T02:16:54.044Z,72.61
2018-04-15T02:17:54.289Z,72.32
2018-04-15T02:18:54.279Z,71.84
2018-04-15T02:19:54.001Z,71.84
2018-04-15T02:20:54.250Z,71.84
2018-04-15T02:21:53.971Z,71.46
2018-04-15T02:22:53.961Z,71.37
2018-04-15T02:23:53.939Z,70.79
2018-04-15T02:24:53.923Z,70.79
2018-04-15T02:25:54.174Z,70.32
2018-04-15T02:26:54.156Z,70.7
2018-04-15T02:27:54.143Z,70.7
2018-04-15T02:28:54.127Z,70.98
2018-04-15T02:29:54.254Z,70.38
2018-04-15T02:30:54.098Z,70.28
2018-04-15T02:31:54.093Z,70.7
2018-04-15T02:32:54.070Z,70.89
2018-04-15T02:33:54.056Z,71.56
2018-04-15T02:34:54.050Z,71.37
2018-04-15T02:35:54.032Z,71.62
2018-04-15T02:36:54.009Z,71.46
2018-04-15T02:37:53.729Z,71.94
2018-04-15T02:38:53.710Z,71.84
2018-04-15T02:39:53.697Z,71.18
2018-04-15T02:40:53.954Z,71.46
2018-04-15T02:41:53.935Z,70.57
2018-04-15T02:42:53.655Z,70.03
2018-04-15T02:43:53.909Z,69.74
2018-04-15T02:44:53.889Z,69.74
2018-04-15T02:45:53.872Z,69.37
2018-04-15T02:46:53.594Z,68.7
2018-04-15T02:47:53.856Z,68.7
2018-04-15T02:48:53.561Z,69.37
2018-04-15T02:49:53.815Z,69.17
2018-04-15T02:50:53.799Z,69.17
2018-04-15T02:51:53.785Z,69.08
2018-04-15T02:52:53.500Z,69.74
2018-04-15T02:53:53.802Z,69.65
2018-04-15T02:54:53.737Z,69.27
2018-04-15T02:55:53.719Z,69.37
2018-04-15T02:56:53.439Z,68.7
2018-04-15T02:57:53.428Z,68.88
2018-04-15T02:58:53.675Z,68.57
2018-04-15T02:59:53.396Z,67.83
2018-04-15T03:00:53.651Z,66.41
2018-04-15T03:01:53.633Z,63.45
2018-04-15T03:02:53.352Z,63.42
2018-04-15T03:03:53.603Z,63.23
2018-04-15T03:04:53.321Z,62.08
2018-04-15T03:05:53.580Z,61.99
2018-04-15T03:06:53.291Z,62.27
2018-04-15T03:07:53.544Z,62.46
2018-04-15T03:08:53.530Z,61.22
2018-04-15T03:09:53.518Z,61.32
2018-04-15T03:10:53.231Z,59.89
2018-04-15T03:11:53.216Z,60.46
2018-04-15T03:12:53.198Z,60.17
2018-04-15T03:13:53.447Z,59.99
2018-04-15T03:14:53.169Z,59.99
2018-04-15T03:15:53.428Z,59.51
2018-04-15T03:16:53.477Z,59.7
2018-04-15T03:17:53.397Z,59.79
2018-04-15T03:18:53.109Z,59.89
2018-04-15T03:19:53.361Z,60.08
2018-04-15T03:20:53.342Z,57.98
2018-04-15T03:21:53.066Z,58.07
2018-04-15T03:22:53.047Z,58.55
2018-04-15T03:23:53.033Z,58.07
2018-04-15T03:24:53.020Z,56.84
2018-04-15T03:25:53.271Z,56.74
2018-04-15T03:26:52.990Z,56.74
2018-04-15T03:27:52.975Z,56.74
2018-04-15T03:28:52.960Z,56.65
2018-04-15T03:29:53.215Z,56.26
2018-04-15T03:30:53.194Z,56.55
2018-04-15T03:31:52.923Z,56.74
2018-04-15T03:32:53.167Z,56.36
2018-04-15T03:33:53.145Z,56.26
2018-04-15T03:34:53.136Z,56.74
2018-04-15T03:35:53.121Z,55.98
2018-04-15T03:36:53.104Z,56.07
2018-04-15T03:37:53.093Z,56.17
2018-04-15T03:38:52.804Z,54.64
2018-04-15T03:39:53.056Z,54.26
2018-04-15T03:40:53.039Z,53.41
2018-04-15T03:41:52.761Z,53.21
2018-04-15T03:42:52.748Z,52.64
2018-04-15T03:43:53.022Z,52.26
2018-04-15T03:44:52.981Z,51.4
2018-04-15T03:45:52.964Z,50.83
2018-04-15T03:46:52.949Z,51.02
2018-04-15T03:47:52.698Z,51.02
2018-04-15T03:48:52.653Z,51.12
2018-04-15T03:49:52.638Z,50.92
2018-04-15T03:50:52.888Z,51.02
2018-04-15T03:51:52.877Z,50.35
2018-04-15T03:52:52.860Z,50.73
2018-04-15T03:53:52.579Z,50.54
2018-04-15T03:54:52.830Z,49.97
2018-04-15T03:55:52.813Z,49.97
2018-04-15T03:56:52.802Z,49.68
2018-04-15T03:57:52.781Z,49.3
2018-04-15T03:58:52.505Z,49.11
2018-04-15T03:59:52.486Z,49.02
2018-04-15T04:00:52.473Z,49.21
2018-04-15T04:01:52.455Z,48.73
2018-04-15T04:02:52.441Z,48.35
2018-04-15T04:03:52.429Z,48.44
2018-04-15T04:04:52.413Z,48.35
2018-04-15T04:05:52.661Z,48.73
2018-04-15T04:06:52.647Z,48.25
2018-04-15T04:07:52.631Z,48.07
2018-04-15T04:08:52.623Z,48.16
2018-04-15T04:09:52.334Z,48.07
2018-04-15T04:10:52.319Z,47.97
2018-04-15T04:11:52.304Z,47.87
2018-04-15T04:12:52.606Z,47.87
2018-04-15T04:13:52.276Z,47.78
2018-04-15T04:14:52.259Z,47.87
2018-04-15T04:15:52.510Z,47.97
2018-04-15T04:16:52.227Z,47.97
2018-04-15T04:17:52.480Z,47.02
2018-04-15T04:18:52.202Z,47.11
2018-04-15T04:19:52.190Z,47.02
2018-04-15T04:20:52.170Z,47.78
2018-04-15T04:21:52.164Z,47.11
2018-04-15T04:22:52.140Z,46.82
2018-04-15T04:23:52.394Z,46.92
2018-04-15T04:24:52.108Z,46.82
2018-04-15T04:25:52.356Z,46.34
2018-04-15T04:26:52.344Z,46.82
2018-04-15T04:27:52.325Z,46.15
2018-04-15T04:28:52.314Z,45.97
2018-04-15T04:29:52.302Z,45.78
2018-04-15T04:30:52.352Z,45.78
2018-04-15T04:31:52.265Z,45.78
2018-04-15T04:32:52.013Z,45.2
2018-04-15T04:33:52.235Z,45.29
2018-04-15T04:34:51.961Z,45.1
2018-04-15T04:35:52.204Z,44.82
2018-04-15T04:36:52.195Z,45.01
2018-04-15T04:37:52.177Z,44.82
2018-04-15T04:38:52.162Z,44.53
2018-04-15T04:39:51.883Z,44.63
2018-04-15T04:40:51.866Z,44.15
2018-04-15T04:41:52.150Z,43.39
2018-04-15T04:42:52.105Z,43.49
2018-04-15T04:43:52.095Z,43.68
2018-04-15T04:44:51.807Z,43.49
2018-04-15T04:45:52.065Z,43.49
2018-04-15T04:46:52.053Z,43.49
2018-04-15T04:47:51.760Z,43.2
2018-04-15T04:48:51.741Z,43.2
2018-04-15T04:49:52.001Z,43.2
2018-04-15T04:50:52.034Z,43.01
2018-04-15T04:51:51.699Z,42.24
2018-04-15T04:52:51.685Z,42.44
2018-04-15T04:53:51.668Z,42.05
2018-04-15T04:54:51.921Z,41.86
2018-04-15T04:55:51.909Z,41.86
2018-04-15T04:56:51.887Z,41.67
2018-04-15T04:57:51.621Z,41.58
2018-04-15T04:58:51.860Z,41.58
2018-04-15T04:59:51.842Z,41.86
2018-04-15T05:00:51.828Z,41.29
2018-04-15T05:01:51.816Z,41.31
2018-04-15T05:02:51.803Z,41.39
2018-04-15T05:03:51.787Z,41.48
2018-04-15T05:04:51.775Z,41
2018-04-15T05:05:51.757Z,41
2018-04-15T05:06:51.743Z,40.81
2018-04-15T05:07:51.725Z,40.24
2018-04-15T05:08:51.444Z,40.05
2018-04-15T05:09:51.432Z,40.53
2018-04-15T05:10:51.421Z,40.15
2018-04-15T05:11:51.398Z,40.24
2018-04-15T05:12:51.648Z,39.98
2018-04-15T05:13:51.379Z,40.07
2018-04-15T05:14:51.618Z,39.98
2018-04-15T05:15:51.337Z,40.07
2018-04-15T05:16:51.588Z,39.78
2018-04-15T05:17:51.576Z,39.78
2018-04-15T05:18:51.295Z,39.69
2018-04-15T05:19:51.280Z,39.98
2018-04-15T05:20:51.264Z,39.5
2018-04-15T05:21:51.516Z,39.31
2018-04-15T05:22:51.231Z,39.4
2018-04-15T05:23:51.487Z,39.12
2018-04-15T05:24:51.466Z,39.02
2018-04-15T05:25:51.187Z,38.93
2018-04-15T05:26:51.434Z,38.83
2018-04-15T05:27:51.428Z,38.83
2018-04-15T05:28:51.142Z,38.83
2018-04-15T05:29:51.126Z,38.54
2018-04-15T05:30:51.374Z,38.73
2018-04-15T05:31:51.362Z,38.64
2018-04-15T05:32:51.355Z,38.64
2018-04-15T05:33:51.342Z,38.35
2018-04-15T05:34:51.317Z,38.45
2018-04-15T05:35:51.317Z,38.45
2018-04-15T05:36:51.019Z,38.45
2018-04-15T05:37:51.278Z,38.35
2018-04-15T05:38:51.261Z,38.07
2018-04-15T05:39:51.241Z,38.26
2018-04-15T05:40:51.229Z,38.07
2018-04-15T05:41:51.210Z,37.88
2018-04-15T05:42:51.194Z,38.07
2018-04-15T05:43:51.180Z,38.07
2018-04-15T05:44:51.165Z,37.97
2018-04-15T05:45:51.153Z,37.97
2018-04-15T05:46:50.871Z,37.97
2018-04-15T05:47:51.123Z,38.07
2018-04-15T05:48:51.105Z,38.07
2018-04-15T05:49:50.828Z,37.78
2018-04-15T05:50:50.810Z,37.78
2018-04-15T05:51:51.065Z,37.88
2018-04-15T05:52:51.046Z,37.88
2018-04-15T05:53:51.089Z,37.88
2018-04-15T05:54:50.754Z,37.88
2018-04-15T05:55:51.001Z,37.88
2018-04-15T05:56:50.727Z,37.49
2018-04-15T05:57:50.973Z,37.59
2018-04-15T05:58:50.694Z,37.59
2018-04-15T05:59:50.678Z,37.68
2018-04-15T06:00:50.660Z,37.59
2018-04-15T06:01:50.644Z,37.68
2018-04-15T06:02:50.897Z,37.68
2018-04-15T06:03:50.890Z,37.3
2018-04-15T06:04:50.604Z,37.59
2018-04-15T06:05:50.849Z,37.59
2018-04-15T06:06:50.834Z,37.4
2018-04-15T06:07:50.561Z,37.3
2018-04-15T06:08:50.806Z,37.3
2018-04-15T06:09:50.787Z,37.23
2018-04-15T06:10:50.777Z,37.02
2018-04-15T06:11:50.766Z,37.12
2018-04-15T06:12:50.489Z,37.21
2018-04-15T06:13:50.465Z,37.13
2018-04-15T06:14:50.748Z,37.02
2018-04-15T06:15:50.441Z,37.02
2018-04-15T06:16:50.686Z,36.94
2018-04-15T06:17:50.675Z,36.64
2018-04-15T06:18:50.393Z,36.35
2018-04-15T06:19:50.657Z,36.85
2018-04-15T06:20:50.637Z,36.85
2018-04-15T06:21:50.349Z,37.04
2018-04-15T06:22:50.602Z,36.85
2018-04-15T06:23:50.586Z,37.13
2018-04-15T06:24:50.570Z,36.85
2018-04-15T06:25:50.556Z,36.75
2018-04-15T06:26:50.272Z,36.75
2018-04-15T06:27:50.261Z,36.94
2018-04-15T06:28:50.249Z,36.85
2018-04-15T06:29:50.233Z,36.85
2018-04-15T06:30:50.510Z,36.56
2018-04-15T06:31:50.471Z,36.66
2018-04-15T06:32:50.455Z,36.75
2018-04-15T06:33:50.441Z,36.75
2018-04-15T06:34:50.424Z,36.46
2018-04-15T06:35:50.431Z,36.46
2018-04-15T06:36:50.518Z,36.56
2018-04-15T06:37:50.113Z,36.46
2018-04-15T06:38:50.370Z,36.85
2018-04-15T06:39:50.347Z,36.37
2018-04-15T06:40:50.079Z,36.27
2018-04-15T06:41:50.319Z,36.27
2018-04-15T06:42:50.309Z,36.27
2018-04-15T06:43:50.291Z,36.27
2018-04-15T06:44:50.274Z,36.37
2018-04-15T06:45:49.998Z,36.27
2018-04-15T06:46:50.255Z,36.18
2018-04-15T06:47:49.965Z,36.08
2018-04-15T06:48:49.955Z,36.18
2018-04-15T06:49:50.204Z,35.99
2018-04-15T06:50:50.210Z,36.27
2018-04-15T06:51:50.175Z,35.99
2018-04-15T06:52:50.162Z,36.75
2018-04-15T06:53:50.152Z,35.8
2018-04-15T06:54:49.865Z,35.8
2018-04-15T06:55:50.195Z,35.99
2018-04-15T06:56:50.110Z,36.08
2018-04-15T06:57:50.093Z,35.99
2018-04-15T06:58:49.808Z,35.99
2018-04-15T06:59:50.059Z,36.08
2018-04-15T07:00:50.047Z,36.08
2018-04-15T07:01:49.769Z,36.37
2018-04-15T07:02:50.025Z,36.37
2018-04-15T07:03:50.000Z,35.8
2018-04-15T07:04:49.986Z,35.99
2018-04-15T07:05:49.973Z,35.89
2018-04-15T07:06:49.961Z,35.8
2018-04-15T07:07:49.950Z,35.8
2018-04-15T07:08:49.665Z,35.89
2018-04-15T07:09:49.647Z,35.89
2018-04-15T07:10:49.900Z,35.89
2018-04-15T07:11:49.936Z,35.8
2018-04-15T07:12:49.612Z,35.7
2018-04-15T07:13:49.865Z,35.7
2018-04-15T07:14:49.578Z,36.56
2018-04-15T07:15:49.832Z,36.18
2018-04-15T07:16:49.823Z,36.19
2018-04-15T07:17:49.535Z,36.27
2018-04-15T07:18:49.525Z,36.39
2018-04-15T07:19:49.507Z,36.1
2018-04-15T07:20:49.494Z,36.1
2018-04-15T07:21:49.780Z,35.91
2018-04-15T07:22:49.733Z,36.19
2018-04-15T07:23:49.453Z,36.48
2018-04-15T07:24:49.437Z,36.48
2018-04-15T07:25:49.696Z,36.68
2018-04-15T07:26:49.415Z,36.77
2018-04-15T07:27:49.659Z,37.05
2018-04-15T07:28:49.394Z,37.24
2018-04-15T07:29:49.639Z,36.68
2018-04-15T07:30:49.360Z,36.96
2018-04-15T07:31:49.612Z,36.68
2018-04-15T07:32:49.606Z,36.68
2018-04-15T07:33:49.314Z,36.48
2018-04-15T07:34:49.309Z,36.69
2018-04-15T07:35:49.285Z,36.69
2018-04-15T07:36:49.543Z,37.36
2018-04-15T07:37:49.527Z,37.46
2018-04-15T07:38:49.516Z,38.51
2018-04-15T07:39:49.499Z,39.56
2018-04-15T07:40:49.220Z,40.42
2018-04-15T07:41:49.204Z,40.89
2018-04-15T07:42:49.205Z,40.52
2018-04-15T07:43:49.459Z,41.09
2018-04-15T07:44:49.446Z,40.23
2018-04-15T07:45:49.158Z,40.23
2018-04-15T07:46:49.141Z,40.06
2018-04-15T07:47:49.135Z,40.53
2018-04-15T07:48:49.381Z,41.68
2018-04-15T07:49:49.369Z,45.6
2018-04-15T07:50:49.356Z,46.08
2018-04-15T07:51:49.081Z,47.23
2018-04-15T07:52:49.329Z,47.23
2018-04-15T07:53:49.050Z,46.53
2018-04-15T07:54:49.039Z,45.98
2018-04-15T07:55:49.028Z,47.03
2018-04-15T07:56:49.281Z,48.38
2018-04-15T07:57:49.002Z,47.89
2018-04-15T07:58:49.259Z,48.57
2018-04-15T07:59:48.975Z,49.43
2018-04-15T08:00:48.960Z,53.25
2018-04-15T08:01:49.216Z,53.53
2018-04-15T08:02:49.202Z,56.69
2018-04-15T08:03:49.244Z,56.02
2018-04-15T08:04:48.917Z,57.26
2018-04-15T08:05:49.170Z,60.04
2018-04-15T08:06:48.888Z,63.19
2018-04-15T08:07:49.200Z,64.56
2018-04-15T08:08:49.125Z,68.58
2018-04-15T08:09:49.115Z,71.45
2018-04-15T08:10:48.836Z,69.44
2018-04-15T08:11:49.095Z,68.29
2018-04-15T08:12:49.077Z,66.09
2018-04-15T08:13:49.068Z,67.82
2018-04-15T08:14:48.790Z,68.9
2018-04-15T08:15:49.042Z,68.52
2018-04-15T08:16:48.767Z,68.52
2018-04-15T08:17:48.753Z,69.17
2018-04-15T08:18:48.742Z,88.31
2018-04-15T08:19:48.732Z,99.99
2018-04-15T08:20:48.720Z,99.99
2018-04-15T08:21:48.979Z,99.99
2018-04-15T08:22:48.699Z,99.99
2018-04-15T08:23:48.956Z,99.99
2018-04-15T08:24:48.950Z,99.99
2018-04-15T08:25:48.942Z,99.99
2018-04-15T08:26:48.930Z,99.99
2018-04-15T08:27:48.656Z,99.99
2018-04-15T08:28:48.913Z,99.99
2018-04-15T08:29:48.903Z,99.99
2018-04-15T08:30:49.106Z,99.99
2018-04-15T08:31:48.898Z,99.99
2018-04-15T08:32:48.621Z,99.99
2018-04-15T08:33:48.878Z,99.99
2018-04-15T08:34:48.874Z,99.99
2018-04-15T08:35:48.868Z,99.99
2018-04-15T08:36:48.873Z,99.99
2018-04-15T08:37:48.857Z,99.99
2018-04-15T08:38:48.587Z,99.99
2018-04-15T08:39:48.845Z,99.99
2018-04-15T08:40:48.576Z,99.99
2018-04-15T08:41:48.837Z,99.99
2018-04-15T08:42:48.568Z,99.99
2018-04-15T08:43:48.829Z,99.99
2018-04-15T08:44:48.825Z,99.99
2018-04-15T08:45:48.823Z,99.99
2018-04-15T08:46:48.815Z,99.99
2018-04-15T08:47:48.815Z,99.99
2018-04-15T08:48:48.545Z,99.99
2018-04-15T08:49:48.806Z,99.99
2018-04-15T08:50:48.803Z,99.99
2018-04-15T08:51:48.801Z,99.99
2018-04-15T08:52:48.795Z,99.99
2018-04-15T08:53:48.529Z,99.99
2018-04-15T08:54:48.523Z,99.99
2018-04-15T08:55:48.519Z,99.99
2018-04-15T08:56:48.785Z,99.99
2018-04-15T08:57:48.513Z,99.99
2018-04-15T08:58:48.510Z,99.99
2018-04-15T08:59:48.508Z,99.99
2018-04-15T09:00:48.502Z,99.99
2018-04-15T09:01:48.764Z,99.99
2018-04-15T09:02:48.758Z,99.99
2018-04-15T09:03:48.490Z,99.99
2018-04-15T09:04:48.485Z,99.99
2018-04-15T09:05:48.747Z,99.99
2018-04-15T09:06:48.481Z,99.99
2018-04-15T09:07:48.742Z,99.99
2018-04-15T09:08:48.731Z,99.99
2018-04-15T09:09:48.534Z,99.99
2018-04-15T09:10:48.727Z,99.99
2018-04-15T09:11:48.455Z,99.99
2018-04-15T09:12:48.716Z,99.99
2018-04-15T09:13:48.716Z,99.99
2018-04-15T09:14:48.714Z,99.99
2018-04-15T09:15:48.701Z,99.99
2018-04-15T09:16:48.431Z,99.99
2018-04-15T09:17:48.693Z,99.99
2018-04-15T09:18:48.419Z,99.99
2018-04-15T09:19:48.686Z,99.99
2018-04-15T09:20:48.673Z,99.99
2018-04-15T09:21:48.407Z,99.99
2018-04-15T09:22:48.405Z,99.99
2018-04-15T09:23:48.660Z,99.99
2018-04-15T09:24:48.391Z,99.99
2018-04-15T09:25:48.660Z,99.99
2018-04-15T09:26:48.381Z,99.99
2018-04-15T09:27:48.377Z,99.99
2018-04-15T09:28:48.370Z,99.99
2018-04-15T09:29:48.368Z,99.99
2018-04-15T09:30:48.368Z,99.99
2018-04-15T09:31:48.359Z,99.99
2018-04-15T09:32:48.618Z,99.99
2018-04-15T09:33:48.354Z,99.99
2018-04-15T09:34:48.611Z,99.99
2018-04-15T09:35:48.346Z,99.99
2018-04-15T09:36:48.602Z,99.99
2018-04-15T09:37:48.331Z,99.99
2018-04-15T09:38:48.590Z,99.99
2018-04-15T09:39:48.320Z,99.99
2018-04-15T09:40:48.316Z,99.99
2018-04-15T09:41:48.314Z,99.99
2018-04-15T09:42:48.570Z,99.99
2018-04-15T09:43:48.306Z,99.99
2018-04-15T09:44:48.571Z,99.99
2018-04-15T09:45:48.559Z,99.99
2018-04-15T09:46:48.552Z,99.99
2018-04-15T09:47:48.549Z,99.99
2018-04-15T09:48:48.545Z,99.99
2018-04-15T09:49:48.324Z,99.99
2018-04-15T09:50:48.535Z,99.99
2018-04-15T09:51:48.533Z,99.99
2018-04-15T09:52:48.526Z,99.99
2018-04-15T09:53:48.522Z,99.99
2018-04-15T09:54:48.516Z,99.99
2018-04-15T09:55:48.521Z,99.99
2018-04-15T09:56:48.506Z,99.99
2018-04-15T09:57:48.235Z,99.99
2018-04-15T09:58:48.233Z,99.99
2018-04-15T09:59:48.488Z,99.99
2018-04-15T10:00:48.481Z,99.99
2018-04-15T10:01:48.536Z,99.99
2018-04-15T10:02:48.483Z,99.99
2018-04-15T10:03:48.469Z,99.99
2018-04-15T10:04:48.201Z,99.99
2018-04-15T10:05:48.464Z,99.99
2018-04-15T10:06:48.460Z,99.99
2018-04-15T10:07:48.190Z,99.99
2018-04-15T10:08:48.195Z,99.99
2018-04-15T10:09:48.177Z,99.99
2018-04-15T10:10:48.225Z,99.99
2018-04-15T10:11:48.167Z,99.99
2018-04-15T10:12:48.166Z,99.99
2018-04-15T10:13:48.158Z,99.99
2018-04-15T10:14:48.151Z,99.99
2018-04-15T10:15:48.150Z,99.99
2018-04-15T10:16:48.142Z,99.99
2018-04-15T10:17:48.405Z,99.99
2018-04-15T10:18:48.405Z,99.99
2018-04-15T10:19:48.394Z,99.99
2018-04-15T10:20:48.392Z,99.99
2018-04-15T10:21:48.384Z,99.99
2018-04-15T10:22:48.113Z,99.99
2018-04-15T10:23:48.377Z,99.99
2018-04-15T10:24:48.106Z,99.99
2018-04-15T10:25:48.370Z,99.99
2018-04-15T10:26:48.364Z,95.88
2018-04-15T10:27:48.102Z,96.22
2018-04-15T10:28:48.357Z,97.42
2018-04-15T10:29:48.356Z,99.99
2018-04-15T10:30:48.101Z,99.99
2018-04-15T10:31:48.086Z,99.55
2018-04-15T10:32:48.086Z,96.61
2018-04-15T10:33:48.352Z,99.07
2018-04-15T10:34:48.340Z,95.79
2018-04-15T10:35:48.076Z,97.57
2018-04-15T10:36:48.072Z,94.87
2018-04-15T10:37:48.328Z,96.03
2018-04-15T10:38:48.081Z,92.41
2018-04-15T10:39:48.060Z,92.02
2018-04-15T10:40:48.318Z,91.92
2018-04-15T10:41:48.052Z,93.47
2018-04-15T10:42:48.049Z,93.95
2018-04-15T10:43:48.312Z,99.99
2018-04-15T10:44:48.307Z,99.99
2018-04-15T10:45:48.042Z,97.28
2018-04-15T10:46:48.035Z,94.48
2018-04-15T10:47:48.302Z,92.36
2018-04-15T10:48:48.293Z,96.66
2018-04-15T10:49:48.292Z,95.06
2018-04-15T10:50:48.291Z,99.26
2018-04-15T10:51:48.019Z,99.99
2018-04-15T10:52:48.288Z,99.99
2018-04-15T10:53:48.284Z,98.25
2018-04-15T10:54:48.278Z,91.35
2018-04-15T10:55:48.007Z,86.56
2018-04-15T10:56:48.006Z,85.74
2018-04-15T10:57:48.268Z,89.07
2018-04-15T10:58:48.267Z,89.4
2018-04-15T10:59:48.289Z,83.16
2018-04-15T11:00:47.996Z,81.57
2018-04-15T11:01:47.997Z,83.85
2018-04-15T11:02:48.266Z,85.16
2018-04-15T11:03:47.996Z,82.26
2018-04-15T11:04:48.266Z,84.74
2018-04-15T11:05:47.998Z,91.16
2018-04-15T11:06:48.257Z,92.7
2018-04-15T11:07:48.260Z,89.37
2018-04-15T11:08:48.335Z,86.36
2018-04-15T11:09:48.266Z,81.23
2018-04-15T11:10:48.263Z,86.69
2018-04-15T11:11:48.267Z,87.07
2018-04-15T11:12:48.267Z,84.5
2018-04-15T11:13:48.271Z,80.03
2018-04-15T11:14:48.011Z,79.93
2018-04-15T11:15:48.281Z,78.33
2018-04-15T11:16:48.276Z,75.38
2018-04-15T11:17:48.021Z,77.28
2018-04-15T11:18:48.017Z,75.57
2018-04-15T11:19:48.021Z,74.74
2018-04-15T11:20:48.027Z,72.25
2018-04-15T11:21:48.293Z,74.6
2018-04-15T11:22:48.294Z,74.84
2018-04-15T11:23:48.299Z,72.99
2018-04-15T11:24:48.040Z,72.16
2018-04-15T11:25:48.318Z,72.31
2018-04-15T11:26:48.052Z,73.13
2018-04-15T11:27:48.057Z,69.38
2018-04-15T11:28:48.326Z,71.55
2018-04-15T11:29:48.332Z,66.14
2018-04-15T11:30:48.332Z,70.29
2018-04-15T11:31:48.073Z,68.73
2018-04-15T11:32:48.075Z,64.98
2018-04-15T11:33:48.350Z,63.91
2018-04-15T11:34:48.099Z,64.95
2018-04-15T11:35:48.094Z,70.06
2018-04-15T11:36:48.484Z,68.54
2018-04-15T11:37:48.367Z,67.89
2018-04-15T11:38:48.374Z,64.88
2018-04-15T11:39:48.120Z,67.89
2018-04-15T11:40:48.118Z,63.81
2018-04-15T11:41:48.125Z,66.11
2018-04-15T11:42:48.130Z,67.4
2018-04-15T11:43:48.142Z,67.76
2018-04-15T11:44:48.148Z,68.63
2018-04-15T11:45:48.419Z,68.44
2018-04-15T11:46:48.433Z,70.96
2018-04-15T11:47:48.159Z,69.83
2018-04-15T11:48:48.457Z,70.28
2018-04-15T11:49:48.435Z,69.73
2018-04-15T11:50:48.173Z,69.31
2018-04-15T11:51:48.180Z,72.89
2018-04-15T11:52:48.446Z,72.31
2018-04-15T11:53:48.447Z,70.12
2018-04-15T11:54:48.457Z,66.92
2018-04-15T11:55:48.192Z,67.02
2018-04-15T11:56:48.462Z,67.37
2018-04-15T11:57:48.203Z,68.05
2018-04-15T11:58:48.465Z,68.21
2018-04-15T11:59:48.476Z,69.63
2018-04-15T12:00:48.211Z,72.3
2018-04-15T12:01:48.483Z,70.86
2018-04-15T12:02:48.223Z,71.5
2018-04-15T12:03:48.479Z,71.78
2018-04-15T12:04:48.220Z,73.59
2018-04-15T12:05:48.217Z,73.36
2018-04-15T12:06:48.221Z,74.96
2018-04-15T12:07:48.486Z,76.51
2018-04-15T12:08:48.486Z,76.37
2018-04-15T12:09:48.228Z,75.16
2018-04-15T12:10:48.487Z,76.42
2018-04-15T12:11:48.494Z,75.93
2018-04-15T12:12:48.218Z,76.32
2018-04-15T12:13:48.482Z,78
2018-04-15T12:14:48.484Z,77.03
2018-04-15T12:15:48.219Z,74.52
2018-04-15T12:16:48.486Z,76.06
2018-04-15T12:17:48.211Z,77.76
2018-04-15T12:18:48.478Z,75.26
2018-04-15T12:19:48.473Z,74.44
2018-04-15T12:20:48.480Z,77.59
2018-04-15T12:21:48.208Z,78.42
2018-04-15T12:22:48.475Z,82.14
2018-04-15T12:23:48.204Z,81.47
2018-04-15T12:24:48.202Z,81.41
2018-04-15T12:25:48.470Z,80.16
2018-04-15T12:26:48.484Z,80.26
2018-04-15T12:27:48.457Z,81.41
2018-04-15T12:28:48.452Z,81.6
2018-04-15T12:29:48.190Z,82.86
2018-04-15T12:30:48.648Z,82.48
2018-04-15T12:31:48.179Z,81.41
2018-04-15T12:32:48.440Z,79.1
2018-04-15T12:33:48.223Z,78.61
2018-04-15T12:34:48.168Z,80.02
2018-04-15T12:35:48.523Z,80.41
2018-04-15T12:36:48.432Z,82.05
2018-04-15T12:37:48.426Z,81.6
2018-04-15T12:38:48.161Z,83.63
2018-04-15T12:39:48.159Z,81.9
2018-04-15T12:40:48.414Z,82.23
2018-04-15T12:41:48.409Z,80.2
2018-04-15T12:42:48.138Z,80.45
2018-04-15T12:43:48.395Z,83.44
2018-04-15T12:44:48.397Z,84.21
2018-04-15T12:45:48.391Z,83.69
2018-04-15T12:46:48.393Z,82.53
2018-04-15T12:47:48.383Z,81.27
2018-04-15T12:48:48.113Z,83.59
2018-04-15T12:49:48.371Z,85.42
2018-04-15T12:50:48.369Z,84.07
2018-04-15T12:51:48.099Z,82.05
2018-04-15T12:52:48.359Z,80.74
2018-04-15T12:53:48.090Z,81.66
2018-04-15T12:54:48.355Z,81.66